Terminal Aerodrome Forecast
Issued by NWS

Home | Current Version | Previous Version | Text Only | Print | Product List | Glossary On
Versions: 1 2 3 4 5 6 7 8 9 10 11 12
968
FTUS42 KMLB 122326
TAFISM
TAF
KISM 122326Z 1300/1324 27012KT P6SM FEW050
     FM130400 28008KT P6SM FEW030 SCT250
     FM131200 32008KT P6SM FEW250
     FM131400 35013KT P6SM SKC
      AMD NOT SKED 1303/1312=

USA.gov is the U.S. government's official web portal to all federal, state and local government web resources and services.